createdAt,value
2022-11-06T00:00:22.538Z,4.83
2022-11-06T00:02:50.964Z,4.67
2022-11-06T00:05:36.722Z,4.70
2022-11-06T00:08:04.979Z,4.80
2022-11-06T00:10:32.976Z,4.57
2022-11-06T00:13:02.506Z,4.27
2022-11-06T00:15:30.571Z,3.97
2022-11-06T00:17:58.517Z,4.27
2022-11-06T00:20:26.484Z,4.20
2022-11-06T00:22:54.450Z,3.73
2022-11-06T00:25:22.475Z,3.63
2022-11-06T00:27:50.417Z,3.60
2022-11-06T00:30:20.848Z,3.73
2022-11-06T00:32:48.992Z,3.83
2022-11-06T00:35:17.085Z,3.40
2022-11-06T00:37:45.029Z,3.97
2022-11-06T00:40:14.350Z,4.10
2022-11-06T00:42:42.297Z,4.20
2022-11-06T00:45:11.325Z,4.67
2022-11-06T00:47:40.736Z,3.80
2022-11-06T00:50:09.455Z,4.10
2022-11-06T00:52:37.474Z,4.30
2022-11-06T00:55:06.147Z,3.60
2022-11-06T00:57:34.119Z,3.67
2022-11-06T01:00:04.461Z,3.70
2022-11-06T01:02:32.619Z,4.00
2022-11-06T01:05:02.275Z,3.90
2022-11-06T01:07:30.229Z,3.70
2022-11-06T01:09:58.239Z,4.90
2022-11-06T01:12:26.358Z,4.10
2022-11-06T01:14:54.523Z,3.70
2022-11-06T01:17:22.517Z,3.70
2022-11-06T01:19:50.572Z,3.90
2022-11-06T01:22:20.090Z,3.83
2022-11-06T01:24:48.237Z,4.03
2022-11-06T01:27:27.248Z,3.80
2022-11-06T01:29:55.961Z,3.00
2022-11-06T01:32:23.954Z,3.57
2022-11-06T01:34:52.316Z,3.70
2022-11-06T01:37:22.057Z,3.60
2022-11-06T01:39:51.432Z,4.03
2022-11-06T01:42:21.918Z,3.53
2022-11-06T01:45:27.786Z,3.60
2022-11-06T01:47:55.832Z,3.50
2022-11-06T01:50:24.025Z,3.50
2022-11-06T01:52:54.563Z,3.70
2022-11-06T01:55:32.299Z,3.80
2022-11-06T01:58:02.921Z,3.53
2022-11-06T02:00:32.601Z,3.60
2022-11-06T02:03:01.972Z,3.40
2022-11-06T02:05:30.624Z,3.27
2022-11-06T02:08:01.396Z,3.50
2022-11-06T02:10:31.054Z,3.13
2022-11-06T02:13:23.609Z,3.20
2022-11-06T02:15:56.634Z,3.10
2022-11-06T02:18:47.354Z,2.87
2022-11-06T02:21:32.393Z,3.00
2022-11-06T02:24:20.485Z,2.90
2022-11-06T02:27:04.486Z,2.80
2022-11-06T02:29:38.134Z,3.00
2022-11-06T02:32:11.269Z,2.87
2022-11-06T02:34:40.762Z,3.00
2022-11-06T02:37:14.673Z,2.67
2022-11-06T02:39:45.813Z,2.90
2022-11-06T02:42:20.583Z,2.70
2022-11-06T02:44:52.288Z,3.00
2022-11-06T02:47:22.476Z,2.63
2022-11-06T02:49:54.812Z,2.70
2022-11-06T02:52:29.401Z,2.80
2022-11-06T02:55:02.634Z,2.80
2022-11-06T02:57:36.348Z,3.00
2022-11-06T03:00:08.655Z,3.00
2022-11-06T03:02:40.970Z,3.03
2022-11-06T03:05:15.163Z,3.30
2022-11-06T03:07:48.818Z,3.10
2022-11-06T03:10:17.784Z,2.70
2022-11-06T03:12:55.994Z,3.20
2022-11-06T03:15:33.508Z,2.90
2022-11-06T03:18:12.528Z,3.00
2022-11-06T03:20:45.483Z,3.50
2022-11-06T03:23:21.603Z,3.17
2022-11-06T03:25:55.713Z,3.10
2022-11-06T03:28:31.850Z,3.50
2022-11-06T03:31:03.370Z,3.03
2022-11-06T03:33:35.509Z,3.57
2022-11-06T03:36:07.647Z,3.50
2022-11-06T03:38:42.205Z,3.10
2022-11-06T03:41:16.056Z,3.50
2022-11-06T03:43:49.041Z,2.50
2022-11-06T03:46:22.032Z,3.10
2022-11-06T03:48:54.007Z,3.30
2022-11-06T03:51:28.936Z,3.20
2022-11-06T03:54:03.070Z,3.50
2022-11-06T03:56:37.945Z,3.53
2022-11-06T03:59:09.685Z,3.00
2022-11-06T04:01:42.683Z,2.77
2022-11-06T04:04:17.865Z,3.70
2022-11-06T04:06:52.777Z,3.03
2022-11-06T04:09:42.849Z,2.77
2022-11-06T04:12:32.267Z,2.97
2022-11-06T04:15:03.808Z,2.30
2022-11-06T04:17:32.630Z,2.50
2022-11-06T04:20:04.099Z,2.00
2022-11-06T04:22:46.114Z,1.90
2022-11-06T04:25:47.488Z,1.90
2022-11-06T04:28:28.611Z,2.10
2022-11-06T04:31:05.028Z,2.60
2022-11-06T04:33:40.884Z,2.50
2022-11-06T04:36:17.462Z,2.07
2022-11-06T04:38:57.081Z,2.27
2022-11-06T04:41:34.758Z,2.10
2022-11-06T04:44:08.530Z,2.37
2022-11-06T04:46:43.174Z,2.10
2022-11-06T04:49:12.473Z,2.60
2022-11-06T04:51:42.650Z,2.83
2022-11-06T04:54:11.832Z,2.40
2022-11-06T04:56:44.732Z,2.50
2022-11-06T04:59:16.352Z,2.50
2022-11-06T05:01:46.383Z,2.10
2022-11-06T05:04:14.716Z,2.60
2022-11-06T05:06:42.634Z,2.17
2022-11-06T05:09:10.572Z,2.50
2022-11-06T05:11:39.189Z,1.83
2022-11-06T05:14:07.212Z,2.30
2022-11-06T05:16:35.301Z,2.03
2022-11-06T05:19:04.854Z,2.47
2022-11-06T05:21:50.593Z,2.10
2022-11-06T05:24:18.619Z,2.37
2022-11-06T05:26:46.601Z,2.60
2022-11-06T05:29:14.948Z,2.40
2022-11-06T05:31:42.983Z,2.10
2022-11-06T05:34:13.750Z,2.50
2022-11-06T05:36:41.718Z,2.30
2022-11-06T05:39:09.788Z,2.00
2022-11-06T05:41:37.685Z,2.70
2022-11-06T05:44:05.708Z,2.30
2022-11-06T05:46:50.099Z,2.30
2022-11-06T05:49:20.303Z,2.37
2022-11-06T05:51:48.713Z,1.70
2022-11-06T05:54:16.733Z,2.33
2022-11-06T05:56:44.638Z,2.10
2022-11-06T05:59:13.093Z,2.30
2022-11-06T06:01:41.169Z,2.10
2022-11-06T06:04:09.190Z,2.37
2022-11-06T06:06:39.476Z,2.47
2022-11-06T06:09:07.480Z,2.50
2022-11-06T06:11:35.755Z,2.37
2022-11-06T06:14:03.789Z,1.97
2022-11-06T06:16:32.193Z,2.40
2022-11-06T06:19:00.171Z,2.40
2022-11-06T06:21:28.212Z,3.03
2022-11-06T06:23:57.515Z,2.43
2022-11-06T06:26:25.601Z,2.50
2022-11-06T06:28:53.654Z,2.60
2022-11-06T06:31:21.928Z,2.17
2022-11-06T06:33:50.041Z,2.83
2022-11-06T06:36:18.113Z,2.40
2022-11-06T06:38:46.148Z,3.03
2022-11-06T06:41:15.482Z,2.90
2022-11-06T06:43:43.437Z,2.30
2022-11-06T06:46:11.864Z,2.83
2022-11-06T06:48:39.905Z,2.30
2022-11-06T06:51:08.287Z,2.70
2022-11-06T06:53:37.144Z,2.73
2022-11-06T06:56:05.710Z,2.80
2022-11-06T06:58:35.464Z,2.80
2022-11-06T07:01:05.239Z,2.40
2022-11-06T07:03:33.768Z,2.00
2022-11-06T07:06:02.029Z,2.60
2022-11-06T07:08:30.099Z,2.40
2022-11-06T07:11:00.607Z,2.60
2022-11-06T07:13:34.379Z,2.60
2022-11-06T07:16:06.213Z,2.40
2022-11-06T07:18:34.196Z,2.80
2022-11-06T07:21:02.225Z,2.40
2022-11-06T07:23:30.192Z,2.27
2022-11-06T07:25:58.111Z,2.63
2022-11-06T07:28:26.044Z,2.50
2022-11-06T07:30:54.136Z,2.90
2022-11-06T07:33:23.493Z,2.60
2022-11-06T07:35:51.533Z,2.60
2022-11-06T07:38:19.721Z,2.50
2022-11-06T07:40:47.726Z,2.37
2022-11-06T07:43:15.967Z,2.40
2022-11-06T07:45:43.989Z,2.50
2022-11-06T07:48:12.205Z,2.40
2022-11-06T07:50:41.858Z,2.13
2022-11-06T07:53:10.071Z,2.13
2022-11-06T07:55:42.260Z,2.40
2022-11-06T07:58:10.757Z,2.40
2022-11-06T08:00:39.049Z,2.13
2022-11-06T08:03:07.070Z,2.27
2022-11-06T08:05:35.016Z,2.40
2022-11-06T08:08:04.612Z,2.57
2022-11-06T08:10:32.842Z,2.10
2022-11-06T08:13:01.249Z,2.33
2022-11-06T08:15:29.346Z,2.37
2022-11-06T08:17:59.579Z,2.50
2022-11-06T08:20:27.893Z,2.70
2022-11-06T08:23:00.196Z,2.70
2022-11-06T08:25:31.037Z,2.57
2022-11-06T08:28:00.422Z,2.17
2022-11-06T08:30:29.362Z,2.07
2022-11-06T08:33:02.074Z,2.10
2022-11-06T08:35:30.538Z,2.47
2022-11-06T08:37:58.927Z,2.60
2022-11-06T08:40:30.831Z,2.80
2022-11-06T08:43:06.096Z,2.30
2022-11-06T08:45:34.528Z,2.33
2022-11-06T08:48:03.430Z,2.57
2022-11-06T08:50:31.551Z,2.60
2022-11-06T08:53:01.112Z,2.70
2022-11-06T08:55:29.060Z,2.50
2022-11-06T08:57:57.026Z,2.60
2022-11-06T09:00:26.796Z,2.60
2022-11-06T09:02:59.502Z,3.00
2022-11-06T09:05:27.798Z,3.07
2022-11-06T09:07:55.927Z,2.50
2022-11-06T09:10:24.343Z,2.10
2022-11-06T09:12:54.396Z,2.40
2022-11-06T09:15:22.391Z,2.40
2022-11-06T09:17:53.234Z,2.37
2022-11-06T09:20:23.692Z,2.40
2022-11-06T09:22:52.067Z,2.10
2022-11-06T09:25:20.500Z,2.30
2022-11-06T09:27:55.686Z,2.50
2022-11-06T09:30:29.139Z,2.50
2022-11-06T09:33:00.843Z,2.80
2022-11-06T09:35:30.443Z,2.00
2022-11-06T09:38:03.289Z,2.40
2022-11-06T09:40:35.561Z,2.97
2022-11-06T09:43:50.310Z,3.13
2022-11-06T09:46:22.160Z,2.60
2022-11-06T09:48:59.152Z,2.43
2022-11-06T09:51:34.935Z,3.10
2022-11-06T09:54:07.659Z,2.00
2022-11-06T09:56:41.489Z,1.80
2022-11-06T09:59:15.241Z,1.93
2022-11-06T10:01:46.955Z,3.23
2022-11-06T10:04:28.237Z,6.70
2022-11-06T10:06:56.593Z,6.90
2022-11-06T10:09:24.583Z,7.53
2022-11-06T10:12:04.735Z,7.60
2022-11-06T10:14:51.857Z,6.67
2022-11-06T10:17:31.592Z,6.50
2022-11-06T10:20:12.120Z,6.70
2022-11-06T10:22:42.858Z,6.10
2022-11-06T10:25:22.219Z,6.73
2022-11-06T10:28:02.301Z,6.23
2022-11-06T10:30:39.027Z,6.33
2022-11-06T10:33:34.747Z,7.13
2022-11-06T10:36:09.079Z,6.73
2022-11-06T10:38:41.573Z,7.30
2022-11-06T10:41:18.411Z,6.73
2022-11-06T10:43:53.003Z,6.47
2022-11-06T10:46:27.209Z,6.57
2022-11-06T10:48:59.904Z,6.90
2022-11-06T10:52:03.610Z,6.80
2022-11-06T10:54:45.738Z,6.20
2022-11-06T10:57:28.948Z,7.37
2022-11-06T10:59:56.972Z,6.50
2022-11-06T11:02:30.457Z,6.30
2022-11-06T11:04:58.879Z,7.10
2022-11-06T11:07:32.045Z,6.57
2022-11-06T11:10:04.334Z,6.70
2022-11-06T11:12:33.820Z,6.20
2022-11-06T11:15:16.073Z,6.80
2022-11-06T11:18:04.964Z,6.80
2022-11-06T11:20:36.034Z,6.97
2022-11-06T11:23:08.942Z,6.40
2022-11-06T11:25:37.680Z,6.40
2022-11-06T11:28:06.215Z,6.60
2022-11-06T11:30:34.264Z,6.33
2022-11-06T11:33:02.360Z,6.73
2022-11-06T11:35:32.629Z,7.20
2022-11-06T11:38:13.438Z,6.97
2022-11-06T11:40:42.760Z,6.70
2022-11-06T11:43:25.755Z,6.53
2022-11-06T11:46:18.992Z,7.20
2022-11-06T11:48:48.987Z,6.73
2022-11-06T11:51:29.111Z,6.73
2022-11-06T11:54:03.729Z,5.90
2022-11-06T11:57:02.283Z,6.20
2022-11-06T11:59:24.497Z,6.10
2022-11-06T12:01:54.003Z,5.73
2022-11-06T12:04:29.350Z,4.87
2022-11-06T12:07:00.229Z,5.60
2022-11-06T12:09:32.930Z,5.57
2022-11-06T12:12:02.615Z,5.47
2022-11-06T12:14:36.418Z,5.17
2022-11-06T12:17:13.058Z,6.10
2022-11-06T12:19:43.581Z,6.47
2022-11-06T12:22:20.279Z,5.37
2022-11-06T12:24:54.363Z,5.13
2022-11-06T12:27:26.486Z,6.40
2022-11-06T12:30:03.816Z,6.33
2022-11-06T12:32:47.191Z,6.27
2022-11-06T12:35:22.488Z,5.63
2022-11-06T12:37:59.466Z,5.30
2022-11-06T12:40:31.593Z,5.17
2022-11-06T12:43:07.046Z,5.00
2022-11-06T12:45:46.042Z,4.27
2022-11-06T12:48:23.078Z,3.17
2022-11-06T12:50:56.818Z,4.50
2022-11-06T12:53:37.845Z,4.67
2022-11-06T12:56:18.268Z,3.60
2022-11-06T12:59:02.244Z,4.40
2022-11-06T13:01:43.728Z,3.20
2022-11-06T13:04:22.310Z,1.93
2022-11-06T13:07:37.595Z,3.00
2022-11-06T13:10:20.179Z,2.80
2022-11-06T13:13:00.709Z,1.77
2022-11-06T13:15:33.876Z,2.17
2022-11-06T13:18:10.084Z,1.50
2022-11-06T13:20:48.049Z,1.60
2022-11-06T13:23:24.676Z,1.60
2022-11-06T13:26:02.019Z,1.70
2022-11-06T13:28:35.376Z,1.70
2022-11-06T13:31:05.688Z,1.50
2022-11-06T13:34:03.476Z,1.80
2022-11-06T13:36:36.830Z,1.70
2022-11-06T13:39:13.730Z,1.40
2022-11-06T13:41:41.879Z,1.80
2022-11-06T13:44:16.055Z,1.80
2022-11-06T13:46:54.805Z,1.80
2022-11-06T13:49:33.405Z,2.00
2022-11-06T13:52:03.816Z,1.97
2022-11-06T13:55:01.628Z,2.70
2022-11-06T13:57:52.528Z,3.70
2022-11-06T14:00:23.975Z,3.30
2022-11-06T14:03:31.067Z,4.17
2022-11-06T14:06:03.504Z,9.20
2022-11-06T14:08:36.139Z,9.10
2022-11-06T14:11:08.043Z,7.20
2022-11-06T14:13:37.675Z,6.83
2022-11-06T14:16:27.605Z,9.63
2022-11-06T14:18:58.723Z,8.30
2022-11-06T14:21:49.317Z,9.53
2022-11-06T14:24:30.234Z,9.37
2022-11-06T14:26:58.802Z,10.57
2022-11-06T14:29:57.308Z,7.27
2022-11-06T14:32:41.044Z,7.10
2022-11-06T14:35:51.645Z,7.03
2022-11-06T14:38:37.898Z,8.40
2022-11-06T14:41:49.074Z,6.10
2022-11-06T14:44:47.427Z,6.83
2022-11-06T14:47:28.684Z,6.67
2022-11-06T14:50:04.044Z,5.60
2022-11-06T14:52:43.458Z,7.17
2022-11-06T14:55:27.025Z,7.67
2022-11-06T14:57:55.971Z,6.73
2022-11-06T15:00:42.722Z,6.30
2022-11-06T15:03:21.649Z,5.50
2022-11-06T15:05:52.646Z,5.60
2022-11-06T15:08:57.906Z,5.00
2022-11-06T15:11:59.970Z,5.13
2022-11-06T15:15:03.718Z,6.73
2022-11-06T15:17:36.465Z,5.23
2022-11-06T15:20:29.038Z,5.30
2022-11-06T15:23:05.427Z,5.77
2022-11-06T15:25:34.652Z,4.83
2022-11-06T15:28:07.757Z,5.20
2022-11-06T15:30:44.765Z,5.60
2022-11-06T15:33:17.136Z,5.77
2022-11-06T15:35:47.813Z,5.97
2022-11-06T15:38:21.523Z,5.97
2022-11-06T15:40:52.637Z,6.60
2022-11-06T15:43:29.320Z,6.67
2022-11-06T15:46:16.857Z,6.97
2022-11-06T15:48:45.096Z,7.70
2022-11-06T15:51:30.582Z,5.93
2022-11-06T15:53:59.852Z,8.27
2022-11-06T15:56:32.855Z,8.57
2022-11-06T15:59:10.456Z,10.23
2022-11-06T16:01:39.186Z,7.63
2022-11-06T16:04:17.367Z,6.73
2022-11-06T16:06:47.604Z,6.53
2022-11-06T16:09:21.225Z,7.80
2022-11-06T16:11:51.414Z,5.47
2022-11-06T16:14:20.386Z,3.70
2022-11-06T16:16:50.060Z,3.97
2022-11-06T16:19:26.637Z,4.00
2022-11-06T16:21:58.321Z,3.73
2022-11-06T16:24:32.817Z,4.27
2022-11-06T16:27:05.753Z,5.47
2022-11-06T16:29:33.969Z,4.83
2022-11-06T16:32:04.228Z,3.60
2022-11-06T16:34:44.024Z,6.17
2022-11-06T16:37:36.561Z,5.47
2022-11-06T16:40:29.829Z,6.20
2022-11-06T16:43:15.605Z,6.10
2022-11-06T16:45:54.284Z,10.03
2022-11-06T16:48:35.553Z,10.83
2022-11-06T16:51:14.975Z,14.47
2022-11-06T16:53:58.046Z,13.90
2022-11-06T16:56:30.570Z,15.23
2022-11-06T16:59:03.452Z,14.50
2022-11-06T17:01:39.365Z,15.67
2022-11-06T17:04:08.116Z,16.40
2022-11-06T17:06:38.025Z,18.20
2022-11-06T17:09:29.321Z,21.77
2022-11-06T17:11:59.838Z,13.93
2022-11-06T17:14:28.583Z,19.03
2022-11-06T17:16:58.805Z,16.37
2022-11-06T17:19:28.494Z,13.90
2022-11-06T17:21:56.795Z,15.70
2022-11-06T17:24:40.584Z,13.90
2022-11-06T17:27:10.260Z,11.67
2022-11-06T17:29:38.844Z,10.77
2022-11-06T17:32:06.816Z,9.50
2022-11-06T17:34:34.751Z,9.80
2022-11-06T17:37:02.744Z,9.13
2022-11-06T17:39:30.691Z,11.00
2022-11-06T17:41:58.642Z,9.50
2022-11-06T17:44:27.895Z,10.50
2022-11-06T17:46:55.775Z,10.83
2022-11-06T17:49:23.653Z,10.97
2022-11-06T17:51:53.469Z,11.20
2022-11-06T17:54:23.207Z,10.20
2022-11-06T17:56:53.600Z,11.97
2022-11-06T17:59:23.908Z,10.80
2022-11-06T18:01:54.155Z,11.50
2022-11-06T18:04:24.477Z,9.47
2022-11-06T18:06:53.560Z,10.70
2022-11-06T18:09:22.801Z,10.30
2022-11-06T18:11:51.424Z,9.50
2022-11-06T18:14:20.424Z,12.03
2022-11-06T18:16:48.466Z,8.93
2022-11-06T18:19:20.297Z,7.87
2022-11-06T18:21:49.266Z,7.87
2022-11-06T18:24:17.791Z,8.40
2022-11-06T18:26:45.802Z,7.20
2022-11-06T18:29:14.589Z,7.17
2022-11-06T18:31:42.967Z,7.20
2022-11-06T18:34:18.403Z,7.60
2022-11-06T18:36:50.324Z,8.10
2022-11-06T18:39:18.619Z,7.87
2022-11-06T18:41:46.570Z,7.40
2022-11-06T18:44:16.633Z,8.50
2022-11-06T18:46:44.555Z,7.80
2022-11-06T18:49:12.767Z,7.87
2022-11-06T18:51:41.454Z,7.60
2022-11-06T18:54:12.521Z,8.20
2022-11-06T18:56:40.489Z,8.30
2022-11-06T18:59:10.060Z,7.40
2022-11-06T19:01:38.398Z,7.03
2022-11-06T19:04:06.769Z,8.53
2022-11-06T19:06:34.783Z,7.47
2022-11-06T19:09:02.909Z,7.23
2022-11-06T19:11:32.257Z,7.97
2022-11-06T19:14:00.228Z,6.97
2022-11-06T19:16:28.203Z,7.97
2022-11-06T19:21:29.750Z,8.23
2022-11-06T19:24:03.455Z,8.07
2022-11-06T19:26:35.355Z,7.43
2022-11-06T19:29:05.516Z,7.90
2022-11-06T19:31:33.889Z,8.63
2022-11-06T19:34:03.210Z,8.50
2022-11-06T19:36:32.343Z,7.27
2022-11-06T19:39:00.637Z,7.60
2022-11-06T19:41:29.763Z,7.53
2022-11-06T19:43:59.213Z,8.27
2022-11-06T19:46:33.958Z,9.73
2022-11-06T19:49:03.479Z,8.23
2022-11-06T19:51:31.888Z,11.30
2022-11-06T19:54:00.516Z,8.63
2022-11-06T19:56:28.996Z,8.17
2022-11-06T19:58:58.280Z,10.87
2022-11-06T20:01:26.409Z,8.97
2022-11-06T20:03:54.465Z,8.13
2022-11-06T20:06:23.031Z,9.60
2022-11-06T20:08:51.976Z,8.87
2022-11-06T20:11:19.963Z,8.10
2022-11-06T20:13:48.336Z,8.67
2022-11-06T20:16:19.660Z,8.27
2022-11-06T20:18:52.292Z,8.57
2022-11-06T20:21:21.081Z,8.23
2022-11-06T20:23:49.565Z,8.33
2022-11-06T20:26:17.694Z,8.50
2022-11-06T20:28:46.875Z,8.70
2022-11-06T20:31:20.699Z,10.67
2022-11-06T20:33:49.400Z,9.30
2022-11-06T20:36:20.610Z,8.80
2022-11-06T20:38:48.849Z,8.13
2022-11-06T20:41:18.148Z,8.47
2022-11-06T20:43:46.468Z,8.43
2022-11-06T20:46:16.354Z,8.17
2022-11-06T20:48:46.711Z,7.90
2022-11-06T20:51:17.199Z,9.60
2022-11-06T20:53:46.593Z,8.90
2022-11-06T20:56:17.434Z,9.37
2022-11-06T20:58:46.160Z,7.80
2022-11-06T21:01:19.911Z,8.07
2022-11-06T21:03:50.857Z,8.37
2022-11-06T21:06:20.369Z,7.87
2022-11-06T21:08:48.891Z,7.50
2022-11-06T21:11:19.268Z,7.13
2022-11-06T21:13:50.008Z,8.27
2022-11-06T21:16:19.623Z,7.33
2022-11-06T21:18:49.238Z,7.10
2022-11-06T21:21:21.053Z,6.73
2022-11-06T21:23:49.804Z,7.43
2022-11-06T21:26:20.850Z,7.00
2022-11-06T21:28:49.601Z,6.80
2022-11-06T21:31:49.181Z,6.23
2022-11-06T21:34:19.850Z,5.97
2022-11-06T21:36:49.653Z,6.77
2022-11-06T21:39:20.710Z,6.93
2022-11-06T21:41:50.482Z,6.37
2022-11-06T21:44:19.811Z,6.50
2022-11-06T21:46:47.801Z,5.73
2022-11-06T21:49:16.508Z,5.80
2022-11-06T21:51:46.121Z,5.37
2022-11-06T21:54:31.773Z,5.50
2022-11-06T21:56:59.798Z,6.00
2022-11-06T21:59:29.965Z,6.70
2022-11-06T22:01:58.582Z,5.10
2022-11-06T22:04:26.763Z,5.43
2022-11-06T22:06:56.145Z,5.60
2022-11-06T22:09:25.848Z,6.33
2022-11-06T22:11:54.344Z,6.07
2022-11-06T22:14:22.483Z,6.63
2022-11-06T22:16:50.554Z,6.50
2022-11-06T22:19:18.776Z,6.67
2022-11-06T22:21:46.848Z,6.23
2022-11-06T22:24:16.409Z,6.50
2022-11-06T22:26:44.389Z,6.33
2022-11-06T22:29:14.095Z,5.30
2022-11-06T22:31:42.053Z,5.93
2022-11-06T22:34:11.475Z,5.03
2022-11-06T22:36:40.327Z,6.40
2022-11-06T22:39:10.045Z,5.37
2022-11-06T22:41:39.881Z,5.70
2022-11-06T22:44:08.362Z,5.37
2022-11-06T22:46:36.560Z,4.90
2022-11-06T22:49:05.829Z,5.30
2022-11-06T22:51:35.027Z,4.53
2022-11-06T22:54:03.685Z,5.03
2022-11-06T22:56:32.759Z,5.60
2022-11-06T22:59:04.595Z,4.97
2022-11-06T23:01:40.183Z,5.17
2022-11-06T23:04:15.313Z,4.80
2022-11-06T23:06:44.420Z,4.50
2022-11-06T23:09:12.733Z,4.20
2022-11-06T23:11:40.658Z,3.93
2022-11-06T23:14:10.085Z,4.50
2022-11-06T23:16:55.523Z,5.00
2022-11-06T23:19:24.164Z,4.43
2022-11-06T23:21:52.526Z,5.03
2022-11-06T23:24:20.511Z,4.90
2022-11-06T23:26:48.511Z,5.20
2022-11-06T23:29:17.887Z,5.60
2022-11-06T23:31:45.854Z,4.90
2022-11-06T23:34:13.725Z,5.27
2022-11-06T23:36:41.700Z,5.50
2022-11-06T23:39:09.619Z,5.13
2022-11-06T23:41:46.958Z,5.60
2022-11-06T23:44:33.443Z,4.80
2022-11-06T23:47:02.964Z,4.90
2022-11-06T23:49:31.010Z,5.20
2022-11-06T23:51:59.208Z,5.20
2022-11-06T23:54:27.129Z,4.50
2022-11-06T23:56:55.098Z,4.37
2022-11-06T23:59:23.202Z,5.20
